createdAt,value
2022-08-16T00:00:04.399Z,984.37
2022-08-16T00:00:56.961Z,984.38
2022-08-16T00:01:55.993Z,984.40
2022-08-16T00:02:55.954Z,984.39
2022-08-16T00:03:55.942Z,984.34
2022-08-16T00:05:00.073Z,984.38
2022-08-16T00:05:57.571Z,984.36
2022-08-16T00:06:55.921Z,984.37
2022-08-16T00:07:56.406Z,984.43
2022-08-16T00:08:55.881Z,984.41
2022-08-16T00:09:55.875Z,984.44
2022-08-16T00:10:55.873Z,984.45
2022-08-16T00:11:55.869Z,984.39
2022-08-16T00:12:55.847Z,984.41
2022-08-16T00:13:55.852Z,984.45
2022-08-16T00:14:56.498Z,984.43
2022-08-16T00:15:55.847Z,984.47
2022-08-16T00:17:06.637Z,984.46
2022-08-16T00:17:57.486Z,984.44
2022-08-16T00:18:55.790Z,984.48
2022-08-16T00:19:55.776Z,984.43
2022-08-16T00:20:55.763Z,984.44
2022-08-16T00:22:01.511Z,984.46
2022-08-16T00:22:57.755Z,984.45
2022-08-16T00:23:55.735Z,984.48
2022-08-16T00:24:55.727Z,984.46
2022-08-16T00:26:33.321Z,984.54
2022-08-16T00:26:56.723Z,984.46
2022-08-16T00:27:55.706Z,984.50
2022-08-16T00:28:55.696Z,984.49
2022-08-16T00:30:00.475Z,984.43
2022-08-16T00:30:59.236Z,984.44
2022-08-16T00:32:00.975Z,984.51
2022-08-16T00:32:57.176Z,984.57
2022-08-16T00:33:55.643Z,984.58
2022-08-16T00:34:55.633Z,984.58
2022-08-16T00:35:55.619Z,984.64
2022-08-16T00:36:56.011Z,984.66
2022-08-16T00:37:56.842Z,984.62
2022-08-16T00:38:56.275Z,984.58
2022-08-16T00:39:57.153Z,984.61
2022-08-16T00:40:55.646Z,984.62
2022-08-16T00:41:55.576Z,984.63
2022-08-16T00:42:55.549Z,984.62
2022-08-16T00:43:55.540Z,984.56
2022-08-16T00:44:55.531Z,984.60
2022-08-16T00:46:00.000Z,984.63
2022-08-16T00:47:06.083Z,984.60
2022-08-16T00:47:56.503Z,984.58
2022-08-16T00:48:55.484Z,984.57
2022-08-16T00:49:56.305Z,984.63
2022-08-16T00:50:55.631Z,984.65
2022-08-16T00:51:55.682Z,984.55
2022-08-16T00:52:55.791Z,984.57
2022-08-16T00:53:55.442Z,984.62
2022-08-16T00:54:55.435Z,984.59
2022-08-16T00:55:55.421Z,984.64
2022-08-16T00:56:57.948Z,984.59
2022-08-16T00:57:59.494Z,984.56
2022-08-16T00:58:56.393Z,984.55
2022-08-16T00:59:59.432Z,984.59
2022-08-16T01:00:55.430Z,984.54
2022-08-16T01:01:55.380Z,984.54
2022-08-16T01:02:55.367Z,984.57
2022-08-16T01:03:55.343Z,984.52
2022-08-16T01:05:04.616Z,984.60
2022-08-16T01:05:56.324Z,984.59
2022-08-16T01:07:02.413Z,984.53
2022-08-16T01:07:56.310Z,984.52
2022-08-16T01:08:55.292Z,984.54
2022-08-16T01:09:55.284Z,984.56
2022-08-16T01:10:55.272Z,984.54
2022-08-16T01:11:55.500Z,984.53
2022-08-16T01:12:55.250Z,984.57
2022-08-16T01:13:55.253Z,984.55
2022-08-16T01:14:55.240Z,984.55
2022-08-16T01:15:55.222Z,984.52
2022-08-16T01:16:55.233Z,984.52
2022-08-16T01:17:56.077Z,984.53
2022-08-16T01:18:55.203Z,984.56
2022-08-16T01:19:57.131Z,984.56
2022-08-16T01:20:55.209Z,984.53
2022-08-16T01:21:55.185Z,984.53
2022-08-16T01:22:55.944Z,984.54
2022-08-16T01:23:58.541Z,984.54
2022-08-16T01:24:55.486Z,984.53
2022-08-16T01:26:00.025Z,984.58
2022-08-16T01:26:56.136Z,984.56
2022-08-16T01:27:56.113Z,984.60
2022-08-16T01:28:55.097Z,984.67
2022-08-16T01:29:58.492Z,984.64
2022-08-16T01:30:55.089Z,984.61
2022-08-16T01:31:55.093Z,984.67
2022-08-16T01:33:01.580Z,984.65
2022-08-16T01:33:56.043Z,984.61
2022-08-16T01:34:57.025Z,984.63
2022-08-16T01:35:56.165Z,984.66
2022-08-16T01:36:58.238Z,984.61
2022-08-16T01:37:55.004Z,984.62
2022-08-16T01:38:57.394Z,984.64
2022-08-16T01:39:55.010Z,984.61
2022-08-16T01:40:54.977Z,984.61
2022-08-16T01:41:54.980Z,984.62
2022-08-16T01:42:55.498Z,984.65
2022-08-16T01:43:54.947Z,984.62
2022-08-16T01:44:54.947Z,984.60
2022-08-16T01:45:57.587Z,984.61
2022-08-16T01:46:54.913Z,984.60
2022-08-16T01:47:54.918Z,984.62
2022-08-16T01:48:54.889Z,984.65
2022-08-16T01:50:42.083Z,984.64
2022-08-16T01:51:09.260Z,984.60
2022-08-16T01:51:55.866Z,984.61
2022-08-16T01:52:54.868Z,984.62
2022-08-16T01:53:55.989Z,984.63
2022-08-16T01:54:54.835Z,984.58
2022-08-16T01:55:54.815Z,984.61
2022-08-16T01:56:54.817Z,984.60
2022-08-16T01:57:56.414Z,984.60
2022-08-16T01:58:55.061Z,984.62
2022-08-16T01:59:55.011Z,984.65
2022-08-16T02:00:54.928Z,984.61
2022-08-16T02:02:00.123Z,984.64
2022-08-16T02:02:55.776Z,984.66
2022-08-16T02:03:58.450Z,984.64
2022-08-16T02:04:55.735Z,984.60
2022-08-16T02:05:54.727Z,984.66
2022-08-16T02:06:54.712Z,984.66
2022-08-16T02:07:54.710Z,984.67
2022-08-16T02:08:54.700Z,984.73
2022-08-16T02:09:59.032Z,984.68
2022-08-16T02:10:55.685Z,984.70
2022-08-16T02:11:54.659Z,984.67
2022-08-16T02:12:59.958Z,984.69
2022-08-16T02:13:55.647Z,984.70
2022-08-16T02:14:54.645Z,984.68
2022-08-16T02:15:54.627Z,984.64
2022-08-16T02:16:54.616Z,984.61
2022-08-16T02:17:54.635Z,984.72
2022-08-16T02:18:54.604Z,984.71
2022-08-16T02:19:59.729Z,984.72
2022-08-16T02:20:54.584Z,984.73
2022-08-16T02:22:09.003Z,984.70
2022-08-16T02:22:55.582Z,984.70
2022-08-16T02:23:55.743Z,984.69
2022-08-16T02:24:54.543Z,984.74
2022-08-16T02:25:54.800Z,984.72
2022-08-16T02:26:54.530Z,984.69
2022-08-16T02:27:54.537Z,984.71
2022-08-16T02:28:54.507Z,984.66
2022-08-16T02:30:05.289Z,984.70
2022-08-16T02:30:55.496Z,984.72
2022-08-16T02:32:03.399Z,984.72
2022-08-16T02:32:54.479Z,984.80
2022-08-16T02:33:54.457Z,984.76
2022-08-16T02:34:56.442Z,984.74
2022-08-16T02:35:58.448Z,984.72
2022-08-16T02:36:54.431Z,984.75
2022-08-16T02:37:56.163Z,984.72
2022-08-16T02:38:54.432Z,984.68
2022-08-16T02:39:54.490Z,984.63
2022-08-16T02:40:54.856Z,984.67
2022-08-16T02:41:54.376Z,984.67
2022-08-16T02:42:54.389Z,984.70
2022-08-16T02:43:54.358Z,984.66
2022-08-16T02:44:54.345Z,984.74
2022-08-16T02:45:54.343Z,984.69
2022-08-16T02:46:54.331Z,984.71
2022-08-16T02:48:00.468Z,984.63
2022-08-16T02:48:55.309Z,984.66
2022-08-16T02:50:52.132Z,984.66
2022-08-16T02:51:05.823Z,984.66
2022-08-16T02:51:56.270Z,984.63
2022-08-16T02:52:54.320Z,984.62
2022-08-16T02:53:54.265Z,984.65
2022-08-16T02:54:55.179Z,984.68
2022-08-16T02:55:54.238Z,984.61
2022-08-16T02:56:54.239Z,984.62
2022-08-16T02:57:54.770Z,984.67
2022-08-16T02:58:54.218Z,984.66
2022-08-16T02:59:54.217Z,984.68
2022-08-16T03:00:55.908Z,984.66
2022-08-16T03:01:55.265Z,984.72
2022-08-16T03:02:55.954Z,984.66
2022-08-16T03:04:24.780Z,984.70
2022-08-16T03:04:55.168Z,984.66
2022-08-16T03:05:54.150Z,984.70
2022-08-16T03:06:56.835Z,984.62
2022-08-16T03:07:54.135Z,984.66
2022-08-16T03:08:54.113Z,984.63
2022-08-16T03:09:54.112Z,984.63
2022-08-16T03:10:54.096Z,984.63
2022-08-16T03:11:55.091Z,984.69
2022-08-16T03:12:56.355Z,984.66
2022-08-16T03:13:55.768Z,984.66
2022-08-16T03:14:54.057Z,984.70
2022-08-16T03:15:54.051Z,984.70
2022-08-16T03:16:59.052Z,984.64
2022-08-16T03:17:55.036Z,984.64
2022-08-16T03:18:55.020Z,984.66
2022-08-16T03:20:02.458Z,984.63
2022-08-16T03:20:55.696Z,984.60
2022-08-16T03:21:53.989Z,984.56
2022-08-16T03:22:53.982Z,984.59
2022-08-16T03:23:53.989Z,984.61
2022-08-16T03:25:25.875Z,984.64
2022-08-16T03:25:54.955Z,984.60
2022-08-16T03:26:53.946Z,984.57
2022-08-16T03:27:53.939Z,984.55
2022-08-16T03:28:53.953Z,984.62
2022-08-16T03:29:54.365Z,984.64
2022-08-16T03:30:53.896Z,984.59
2022-08-16T03:31:53.894Z,984.63
2022-08-16T03:32:53.943Z,984.60
2022-08-16T03:33:53.887Z,984.65
2022-08-16T03:34:53.861Z,984.62
2022-08-16T03:35:57.149Z,984.63
2022-08-16T03:36:53.836Z,984.69
2022-08-16T03:38:02.480Z,984.68
2022-08-16T03:38:53.840Z,984.72
2022-08-16T03:39:56.743Z,984.65
2022-08-16T03:40:54.798Z,984.60
2022-08-16T03:41:59.675Z,984.63
2022-08-16T03:43:18.812Z,984.71
2022-08-16T03:43:54.816Z,984.67
2022-08-16T03:45:03.794Z,984.70
2022-08-16T03:45:54.766Z,984.71
2022-08-16T03:46:53.742Z,984.69
2022-08-16T03:47:58.273Z,984.69
2022-08-16T03:48:54.743Z,984.57
2022-08-16T03:49:53.725Z,984.61
2022-08-16T03:50:59.581Z,984.56
2022-08-16T03:51:54.697Z,984.59
2022-08-16T03:52:59.670Z,984.61
2022-08-16T03:54:00.707Z,984.62
2022-08-16T03:54:59.220Z,984.56
2022-08-16T03:55:54.657Z,984.50
2022-08-16T03:56:57.559Z,984.55
2022-08-16T03:57:53.642Z,984.63
2022-08-16T03:58:53.634Z,984.58
2022-08-16T03:59:53.621Z,984.58
2022-08-16T04:00:59.077Z,984.51
2022-08-16T04:01:54.600Z,984.57
2022-08-16T04:02:53.588Z,984.52
2022-08-16T04:03:55.183Z,984.55
2022-08-16T04:04:53.573Z,984.64
2022-08-16T04:05:54.149Z,984.65
2022-08-16T04:06:53.545Z,984.61
2022-08-16T04:07:54.538Z,984.71
2022-08-16T04:08:53.549Z,984.65
2022-08-16T04:09:53.521Z,984.68
2022-08-16T04:10:53.518Z,984.74
2022-08-16T04:11:53.503Z,984.72
2022-08-16T04:12:59.379Z,984.68
2022-08-16T04:14:01.658Z,984.66
2022-08-16T04:14:54.518Z,984.72
2022-08-16T04:15:53.462Z,984.65
2022-08-16T04:16:53.448Z,984.77
2022-08-16T04:17:53.432Z,984.78
2022-08-16T04:18:53.444Z,984.81
2022-08-16T04:19:54.975Z,984.82
2022-08-16T04:20:53.414Z,984.83
2022-08-16T04:21:53.394Z,984.76
2022-08-16T04:22:53.384Z,984.74
2022-08-16T04:23:54.725Z,984.74
2022-08-16T04:24:54.383Z,984.73
2022-08-16T04:25:53.689Z,984.74
2022-08-16T04:26:53.344Z,984.75
2022-08-16T04:27:55.797Z,984.79
2022-08-16T04:29:14.768Z,984.81
2022-08-16T04:29:55.337Z,984.86
2022-08-16T04:30:54.317Z,984.90
2022-08-16T04:31:56.057Z,984.86
2022-08-16T04:32:53.291Z,984.89
2022-08-16T04:33:53.292Z,984.93
2022-08-16T04:34:53.274Z,984.93
2022-08-16T04:35:53.262Z,984.92
2022-08-16T04:36:53.256Z,984.94
2022-08-16T04:37:54.036Z,984.95
2022-08-16T04:38:53.264Z,984.90
2022-08-16T04:39:55.846Z,984.96
2022-08-16T04:40:54.370Z,984.88
2022-08-16T04:41:56.947Z,984.93
2022-08-16T04:42:53.217Z,984.92
2022-08-16T04:43:53.202Z,984.92
2022-08-16T04:44:55.461Z,984.85
2022-08-16T04:46:00.749Z,984.89
2022-08-16T04:47:02.960Z,984.94
2022-08-16T04:47:56.301Z,984.97
2022-08-16T04:48:53.155Z,984.96
2022-08-16T04:49:53.124Z,984.94
2022-08-16T04:50:53.114Z,984.97
2022-08-16T04:51:53.929Z,985.00
2022-08-16T04:52:53.095Z,984.96
2022-08-16T04:53:53.099Z,984.99
2022-08-16T04:54:53.083Z,984.97
2022-08-16T04:55:53.652Z,985.03
2022-08-16T04:56:53.054Z,985.06
2022-08-16T04:57:53.778Z,985.03
2022-08-16T04:58:53.048Z,985.02
2022-08-16T04:59:54.195Z,985.04
2022-08-16T05:00:53.016Z,985.06
2022-08-16T05:01:57.626Z,985.03
2022-08-16T05:02:55.864Z,985.04
2022-08-16T05:03:59.671Z,985.09
2022-08-16T05:04:53.978Z,985.13
2022-08-16T05:05:59.598Z,985.17
2022-08-16T05:06:53.959Z,985.22
2022-08-16T05:07:58.303Z,985.20
2022-08-16T05:08:56.364Z,985.26
2022-08-16T05:09:53.919Z,985.29
2022-08-16T05:10:52.922Z,985.29
2022-08-16T05:11:57.593Z,985.27
2022-08-16T05:12:52.897Z,985.35
2022-08-16T05:13:52.893Z,985.32
2022-08-16T05:15:01.751Z,985.29
2022-08-16T05:15:53.866Z,985.29
2022-08-16T05:16:52.853Z,985.33
2022-08-16T05:17:58.318Z,985.32
2022-08-16T05:18:53.846Z,985.38
2022-08-16T05:19:58.287Z,985.39
2022-08-16T05:20:54.194Z,985.36
2022-08-16T05:21:53.802Z,985.36
2022-08-16T05:22:53.079Z,985.40
2022-08-16T05:23:58.670Z,985.43
2022-08-16T05:24:55.104Z,985.45
2022-08-16T05:25:52.760Z,985.32
2022-08-16T05:26:52.756Z,985.39
2022-08-16T05:27:52.746Z,985.32
2022-08-16T05:28:55.456Z,985.30
2022-08-16T05:29:59.356Z,985.31
2022-08-16T05:30:53.725Z,985.39
2022-08-16T05:31:53.193Z,985.38
2022-08-16T05:32:52.981Z,985.41
2022-08-16T05:33:53.559Z,985.39
2022-08-16T05:34:52.678Z,985.41
2022-08-16T05:35:54.541Z,985.33
2022-08-16T05:36:52.666Z,985.33
2022-08-16T05:37:52.647Z,985.35
2022-08-16T05:38:52.651Z,985.35
2022-08-16T05:39:55.351Z,985.32
2022-08-16T05:40:52.794Z,985.34
2022-08-16T05:41:52.611Z,985.35
2022-08-16T05:42:52.789Z,985.35
2022-08-16T05:43:52.616Z,985.36
2022-08-16T05:44:53.572Z,985.38
2022-08-16T05:45:53.569Z,985.43
2022-08-16T05:46:52.567Z,985.41
2022-08-16T05:48:00.160Z,985.44
2022-08-16T05:48:54.832Z,985.44
2022-08-16T05:49:52.519Z,985.48
2022-08-16T05:50:52.876Z,985.41
2022-08-16T05:51:52.511Z,985.43
2022-08-16T05:52:52.497Z,985.44
2022-08-16T05:53:52.493Z,985.46
2022-08-16T05:55:01.153Z,985.59
2022-08-16T05:55:53.471Z,985.51
2022-08-16T05:56:52.483Z,985.52
2022-08-16T05:57:52.811Z,985.58
2022-08-16T05:58:52.442Z,985.51
2022-08-16T05:59:59.453Z,985.52
2022-08-16T06:00:53.424Z,985.59
2022-08-16T06:01:52.462Z,985.52
2022-08-16T06:02:52.403Z,985.55
2022-08-16T06:03:52.395Z,985.49
2022-08-16T06:04:52.396Z,985.51
2022-08-16T06:05:52.376Z,985.46
2022-08-16T06:06:56.113Z,985.52
2022-08-16T06:07:58.312Z,985.57
2022-08-16T06:08:53.366Z,985.54
2022-08-16T06:09:52.588Z,985.48
2022-08-16T06:11:09.715Z,985.49
2022-08-16T06:11:53.311Z,985.55
2022-08-16T06:12:55.372Z,985.54
2022-08-16T06:13:55.420Z,985.55
2022-08-16T06:14:52.300Z,985.53
2022-08-16T06:15:52.267Z,985.63
2022-08-16T06:16:52.279Z,985.67
2022-08-16T06:17:52.239Z,985.60
2022-08-16T06:18:52.244Z,985.61
2022-08-16T06:19:52.244Z,985.64
2022-08-16T06:20:55.877Z,985.59
2022-08-16T06:21:55.310Z,985.59
2022-08-16T06:22:57.847Z,985.54
2022-08-16T06:23:54.342Z,985.53
2022-08-16T06:24:53.980Z,985.56
2022-08-16T06:25:53.424Z,985.57
2022-08-16T06:26:57.849Z,985.52
2022-08-16T06:27:57.382Z,985.61
2022-08-16T06:28:52.649Z,985.59
2022-08-16T06:29:52.144Z,985.57
2022-08-16T06:30:52.119Z,985.58
2022-08-16T06:31:52.107Z,985.61
2022-08-16T06:32:52.435Z,985.61
2022-08-16T06:33:52.091Z,985.67
2022-08-16T06:34:55.373Z,985.59
2022-08-16T06:35:55.066Z,985.64
2022-08-16T06:36:52.077Z,985.65
2022-08-16T06:37:53.053Z,985.68
2022-08-16T06:38:56.576Z,985.73
2022-08-16T06:39:52.081Z,985.72
2022-08-16T06:40:52.057Z,985.66
2022-08-16T06:41:52.021Z,985.71
2022-08-16T06:42:57.132Z,985.68
2022-08-16T06:43:54.018Z,985.71
2022-08-16T06:44:51.995Z,985.69
2022-08-16T06:45:52.039Z,985.70
2022-08-16T06:46:51.978Z,985.70
2022-08-16T06:47:53.491Z,985.73
2022-08-16T06:48:52.014Z,985.78
2022-08-16T06:49:53.884Z,985.75
2022-08-16T06:50:51.933Z,985.76
2022-08-16T06:51:52.507Z,985.72
2022-08-16T06:53:00.077Z,985.78
2022-08-16T06:53:52.923Z,985.73
2022-08-16T06:54:51.889Z,985.77
2022-08-16T06:55:53.783Z,985.77
2022-08-16T06:56:52.404Z,985.73
2022-08-16T06:57:51.855Z,985.80
2022-08-16T06:58:51.849Z,985.78
2022-08-16T06:59:58.220Z,985.78
2022-08-16T07:00:51.847Z,985.80
2022-08-16T07:01:54.788Z,985.71
2022-08-16T07:02:52.980Z,985.75
2022-08-16T07:03:55.423Z,985.76
2022-08-16T07:04:52.818Z,985.76
2022-08-16T07:05:51.783Z,985.73
2022-08-16T07:06:51.783Z,985.73
2022-08-16T07:07:51.772Z,985.78
2022-08-16T07:08:51.762Z,985.79
2022-08-16T07:09:51.750Z,985.78
2022-08-16T07:10:51.741Z,985.76
2022-08-16T07:11:52.394Z,985.76
2022-08-16T07:13:03.859Z,985.82
2022-08-16T07:14:00.318Z,985.81
2022-08-16T07:14:55.544Z,985.82
2022-08-16T07:15:51.691Z,985.84
2022-08-16T07:16:51.663Z,985.84
2022-08-16T07:17:51.668Z,985.86
2022-08-16T07:19:01.347Z,985.80
2022-08-16T07:20:03.235Z,985.81
2022-08-16T07:20:52.629Z,985.87
2022-08-16T07:21:59.216Z,985.83
2022-08-16T07:22:59.061Z,985.79
2022-08-16T07:23:57.929Z,985.79
2022-08-16T07:24:52.592Z,985.82
2022-08-16T07:25:51.587Z,985.85
2022-08-16T07:26:51.579Z,985.83
2022-08-16T07:27:51.567Z,985.88
2022-08-16T07:28:51.569Z,985.85
2022-08-16T07:29:51.551Z,985.87
2022-08-16T07:30:51.543Z,985.90
2022-08-16T07:31:51.563Z,985.86
2022-08-16T07:32:52.118Z,985.82
2022-08-16T07:33:54.993Z,985.80
2022-08-16T07:34:51.527Z,985.76
2022-08-16T07:35:51.496Z,985.75
2022-08-16T07:36:58.355Z,985.80
2022-08-16T07:37:52.472Z,985.72
2022-08-16T07:38:51.474Z,985.78
2022-08-16T07:39:51.609Z,985.79
2022-08-16T07:40:59.789Z,985.79
2022-08-16T07:41:52.435Z,985.76
2022-08-16T07:42:51.417Z,985.73
2022-08-16T07:43:51.429Z,985.75
2022-08-16T07:44:51.403Z,985.73
2022-08-16T07:45:52.897Z,985.71
2022-08-16T07:46:55.501Z,985.70
2022-08-16T07:47:51.498Z,985.73
2022-08-16T07:48:51.365Z,985.78
2022-08-16T07:49:53.355Z,985.72
2022-08-16T07:50:56.789Z,985.77
2022-08-16T07:51:56.073Z,985.66
2022-08-16T07:52:51.422Z,985.69
2022-08-16T07:54:02.663Z,985.65
2022-08-16T07:54:53.348Z,985.69
2022-08-16T07:55:51.288Z,985.72
2022-08-16T07:56:51.274Z,985.72
2022-08-16T07:57:58.123Z,985.77
2022-08-16T07:58:55.606Z,985.79
2022-08-16T07:59:52.252Z,985.76
2022-08-16T08:00:51.270Z,985.76
2022-08-16T08:01:53.032Z,985.81
2022-08-16T08:02:52.239Z,985.80
2022-08-16T08:03:51.233Z,985.79
2022-08-16T08:04:51.203Z,985.74
2022-08-16T08:05:51.193Z,985.82
2022-08-16T08:06:51.383Z,985.75
2022-08-16T08:07:51.456Z,985.83
2022-08-16T08:08:52.805Z,985.82
2022-08-16T08:09:53.173Z,985.85
2022-08-16T08:10:51.141Z,985.88
2022-08-16T08:12:00.810Z,985.89
2022-08-16T08:12:52.331Z,985.84
2022-08-16T08:13:51.129Z,985.91
2022-08-16T08:14:51.101Z,985.92
2022-08-16T08:15:52.796Z,985.93
2022-08-16T08:16:51.098Z,985.95
2022-08-16T08:17:51.078Z,985.98
2022-08-16T08:18:56.107Z,985.94
2022-08-16T08:19:53.216Z,985.90
2022-08-16T08:20:59.375Z,985.95
2022-08-16T08:21:59.240Z,985.91
2022-08-16T08:22:52.036Z,985.93
2022-08-16T08:23:51.046Z,985.95
2022-08-16T08:24:51.019Z,985.97
2022-08-16T08:25:53.604Z,986.02
2022-08-16T08:26:50.994Z,985.90
2022-08-16T08:27:50.987Z,985.93
2022-08-16T08:28:51.988Z,985.93
2022-08-16T08:30:49.017Z,985.94
2022-08-16T08:31:01.357Z,985.89
2022-08-16T08:31:53.079Z,985.91
2022-08-16T08:33:00.515Z,985.99
2022-08-16T08:33:51.947Z,985.96
2022-08-16T08:34:50.931Z,985.95
2022-08-16T08:35:50.910Z,985.98
2022-08-16T08:36:54.117Z,985.95
2022-08-16T08:37:55.090Z,985.96
2022-08-16T08:38:50.898Z,985.98
2022-08-16T08:39:55.018Z,985.92
2022-08-16T08:40:50.857Z,985.90
2022-08-16T08:41:51.323Z,985.96
2022-08-16T08:42:50.845Z,985.95
2022-08-16T08:43:51.871Z,985.85
2022-08-16T08:44:50.822Z,985.92
2022-08-16T08:45:52.603Z,985.94
2022-08-16T08:46:59.694Z,985.92
2022-08-16T08:47:58.353Z,985.92
2022-08-16T08:48:59.644Z,985.93
2022-08-16T08:49:55.492Z,985.97
2022-08-16T08:50:50.756Z,986.02
2022-08-16T08:51:50.763Z,985.99
2022-08-16T08:52:50.918Z,985.98
2022-08-16T08:53:57.597Z,986.05
2022-08-16T08:54:51.718Z,986.01
2022-08-16T08:55:59.063Z,985.96
2022-08-16T08:56:51.700Z,985.95
2022-08-16T08:57:50.686Z,986.04
2022-08-16T08:58:54.346Z,986.01
2022-08-16T08:59:51.667Z,985.95
2022-08-16T09:00:51.592Z,985.97
2022-08-16T09:01:57.521Z,985.99
2022-08-16T09:02:51.905Z,986.02
2022-08-16T09:03:50.688Z,986.03
2022-08-16T09:04:50.616Z,986.04
2022-08-16T09:05:51.657Z,986.00
2022-08-16T09:06:50.597Z,986.03
2022-08-16T09:07:54.807Z,986.05
2022-08-16T09:08:51.593Z,986.00
2022-08-16T09:09:50.585Z,986.07
2022-08-16T09:10:59.294Z,986.09
2022-08-16T09:11:53.554Z,986.08
2022-08-16T09:12:52.719Z,986.02
2022-08-16T09:13:51.127Z,986.07
2022-08-16T09:14:51.284Z,986.06
2022-08-16T09:15:50.510Z,986.01
2022-08-16T09:17:01.544Z,986.08
2022-08-16T09:17:53.602Z,986.00
2022-08-16T09:18:56.855Z,986.03
2022-08-16T09:19:55.641Z,986.05
2022-08-16T09:20:58.615Z,986.08
2022-08-16T09:21:56.003Z,986.08
2022-08-16T09:22:52.367Z,986.11
2022-08-16T09:23:50.451Z,986.15
2022-08-16T09:24:52.633Z,986.15
2022-08-16T09:25:50.420Z,986.12
2022-08-16T09:26:52.585Z,986.18
2022-08-16T09:29:13.477Z,986.16
2022-08-16T09:29:16.278Z,986.21
2022-08-16T09:30:00.487Z,986.14
2022-08-16T09:30:51.372Z,986.09
2022-08-16T09:31:53.617Z,986.12
2022-08-16T09:32:50.586Z,986.13
2022-08-16T09:33:51.777Z,986.12
2022-08-16T09:34:50.340Z,986.16
2022-08-16T09:35:53.634Z,986.16
2022-08-16T09:36:50.310Z,986.14
2022-08-16T09:38:01.018Z,986.06
2022-08-16T09:38:51.291Z,986.10
2022-08-16T09:39:50.622Z,986.06
2022-08-16T09:40:50.349Z,986.14
2022-08-16T09:41:53.968Z,986.20
2022-08-16T09:42:56.034Z,986.16
2022-08-16T09:43:59.486Z,986.14
2022-08-16T09:45:11.321Z,986.09
2022-08-16T09:45:51.222Z,986.09
2022-08-16T09:46:50.337Z,986.05
2022-08-16T09:47:57.343Z,986.11
2022-08-16T09:48:51.708Z,986.09
2022-08-16T09:49:50.932Z,986.06
2022-08-16T09:50:50.177Z,986.07
2022-08-16T09:51:50.166Z,986.08
2022-08-16T09:52:50.372Z,986.06
2022-08-16T09:53:54.020Z,986.07
2022-08-16T09:54:50.158Z,986.08
2022-08-16T09:55:50.339Z,986.08
2022-08-16T09:56:53.352Z,986.06
2022-08-16T09:57:52.870Z,986.09
2022-08-16T09:59:03.346Z,986.07
2022-08-16T09:59:56.256Z,986.14
2022-08-16T10:00:51.083Z,986.08
2022-08-16T10:01:50.103Z,986.08
2022-08-16T10:02:50.143Z,986.08
2022-08-16T10:04:01.945Z,986.04
2022-08-16T10:04:54.821Z,986.02
2022-08-16T10:05:50.040Z,986.02
2022-08-16T10:06:50.067Z,986.04
2022-08-16T10:07:50.449Z,986.03
2022-08-16T10:09:05.782Z,986.07
2022-08-16T10:09:54.969Z,986.08
2022-08-16T10:10:51.071Z,985.98
2022-08-16T10:11:51.115Z,985.93
2022-08-16T10:12:50.011Z,986.07
2022-08-16T10:13:50.984Z,986.04
2022-08-16T10:14:50.046Z,985.97
2022-08-16T10:15:55.772Z,985.99
2022-08-16T10:16:50.951Z,985.99
2022-08-16T10:18:01.381Z,985.98
2022-08-16T10:19:00.896Z,985.94
2022-08-16T10:19:50.951Z,985.99
2022-08-16T10:20:49.901Z,985.96
2022-08-16T10:21:56.297Z,985.99
2022-08-16T10:22:57.754Z,986.00
2022-08-16T10:23:51.869Z,985.98
2022-08-16T10:24:56.218Z,985.96
2022-08-16T10:27:03.703Z,986.01
2022-08-16T10:27:19.702Z,986.00
2022-08-16T10:27:56.838Z,985.98
2022-08-16T10:28:50.828Z,985.97
2022-08-16T10:29:59.285Z,986.02
2022-08-16T10:30:56.505Z,985.92
2022-08-16T10:31:53.771Z,985.96
2022-08-16T10:32:49.787Z,985.94
2022-08-16T10:33:49.789Z,985.86
2022-08-16T10:34:51.469Z,985.92
2022-08-16T10:35:49.763Z,985.94
2022-08-16T10:36:54.207Z,985.96
2022-08-16T10:37:50.027Z,985.94
2022-08-16T10:38:49.727Z,985.94
2022-08-16T10:39:49.772Z,985.84
2022-08-16T10:40:50.711Z,985.92
2022-08-16T10:41:49.732Z,985.95
2022-08-16T10:42:50.280Z,985.87
2022-08-16T10:43:50.258Z,985.89
2022-08-16T10:44:54.703Z,985.88
2022-08-16T10:45:59.990Z,985.86
2022-08-16T10:46:50.670Z,985.91
2022-08-16T10:48:02.768Z,985.88
2022-08-16T10:48:50.681Z,985.87
2022-08-16T10:49:49.718Z,985.91
2022-08-16T10:50:49.679Z,985.87
2022-08-16T10:52:02.883Z,985.94
2022-08-16T10:52:51.852Z,985.90
2022-08-16T10:53:50.628Z,985.97
2022-08-16T10:55:57.691Z,985.94
2022-08-16T10:56:55.865Z,985.93
2022-08-16T10:57:50.699Z,985.93
2022-08-16T10:58:49.554Z,986.00
2022-08-16T10:59:53.046Z,985.95
2022-08-16T11:00:54.229Z,985.91
2022-08-16T11:03:04.739Z,985.95
2022-08-16T11:03:57.147Z,985.96
2022-08-16T11:05:08.221Z,985.97
2022-08-16T11:05:59.503Z,985.99
2022-08-16T11:07:07.807Z,985.98
2022-08-16T11:07:53.555Z,985.92
2022-08-16T11:09:20.939Z,986.00
2022-08-16T11:09:50.439Z,985.93
2022-08-16T11:11:10.617Z,985.98
2022-08-16T11:12:52.773Z,985.94
2022-08-16T11:14:10.717Z,986.01
2022-08-16T11:15:55.886Z,986.03
2022-08-16T11:17:10.432Z,986.04
2022-08-16T11:19:03.566Z,986.09
2022-08-16T11:19:06.020Z,986.12
2022-08-16T11:20:51.370Z,986.07
2022-08-16T11:22:51.384Z,986.06
2022-08-16T11:23:57.776Z,986.06
2022-08-16T11:25:11.797Z,986.05
2022-08-16T11:26:23.457Z,986.07
2022-08-16T11:27:18.689Z,986.00
2022-08-16T11:27:51.268Z,986.10
2022-08-16T11:29:52.269Z,986.13
2022-08-16T11:30:54.853Z,986.10
2022-08-16T11:31:54.019Z,986.12
2022-08-16T11:32:49.409Z,986.10
2022-08-16T11:33:52.728Z,986.04
2022-08-16T11:35:10.658Z,986.10
2022-08-16T11:36:53.542Z,986.03
2022-08-16T11:38:05.864Z,986.04
2022-08-16T11:38:57.323Z,985.98
2022-08-16T11:39:49.242Z,986.02
2022-08-16T11:40:52.351Z,986.04
2022-08-16T11:41:49.327Z,986.03
2022-08-16T11:42:49.121Z,986.05
2022-08-16T11:43:49.129Z,985.99
2022-08-16T11:44:52.545Z,985.99
2022-08-16T11:45:54.280Z,986.00
2022-08-16T11:46:49.087Z,985.99
2022-08-16T11:47:49.146Z,986.00
2022-08-16T11:48:49.066Z,986.05
2022-08-16T11:49:49.056Z,986.00
2022-08-16T11:50:49.066Z,985.98
2022-08-16T11:51:49.039Z,985.96
2022-08-16T11:52:49.026Z,985.91
2022-08-16T11:53:49.016Z,985.98
2022-08-16T11:54:56.952Z,986.04
2022-08-16T11:55:50.555Z,986.05
2022-08-16T11:56:57.485Z,986.03
2022-08-16T11:57:50.080Z,985.95
2022-08-16T11:58:51.537Z,985.96
2022-08-16T11:59:48.944Z,985.91
2022-08-16T12:00:50.538Z,985.88
2022-08-16T12:01:58.890Z,985.90
2022-08-16T12:02:49.929Z,985.87
2022-08-16T12:03:49.006Z,985.94
2022-08-16T12:04:51.664Z,985.94
2022-08-16T12:05:51.922Z,985.89
2022-08-16T12:06:48.903Z,985.91
2022-08-16T12:07:49.170Z,985.92
2022-08-16T12:08:48.872Z,985.94
2022-08-16T12:09:48.871Z,985.88
2022-08-16T12:10:48.838Z,985.90
2022-08-16T12:11:52.986Z,985.92
2022-08-16T12:12:48.831Z,985.87
2022-08-16T12:13:48.826Z,985.89
2022-08-16T12:14:48.826Z,985.87
2022-08-16T12:15:48.795Z,985.87
2022-08-16T12:16:55.517Z,985.91
2022-08-16T12:17:50.180Z,985.88
2022-08-16T12:19:48.772Z,985.86
2022-08-16T12:20:48.749Z,985.87
2022-08-16T12:21:58.816Z,985.86
2022-08-16T12:22:49.862Z,985.90
2022-08-16T12:23:48.715Z,985.91
2022-08-16T12:24:51.170Z,985.90
2022-08-16T12:25:48.701Z,985.93
2022-08-16T12:26:48.722Z,985.90
2022-08-16T12:27:49.802Z,985.91
2022-08-16T12:28:53.986Z,985.88
2022-08-16T12:29:49.675Z,985.93
2022-08-16T12:30:48.653Z,985.84
2022-08-16T12:32:00.471Z,985.89
2022-08-16T12:32:53.282Z,985.85
2022-08-16T12:33:50.797Z,985.86
2022-08-16T12:34:52.563Z,985.88
2022-08-16T12:35:48.604Z,985.81
2022-08-16T12:36:48.603Z,985.83